createdAt,value
2023-04-29T00:00:30.863Z,24.57
2023-04-29T00:02:57.451Z,25.25
2023-04-29T00:05:24.474Z,23.02
2023-04-29T00:07:51.063Z,26.05
2023-04-29T00:10:17.612Z,24.48
2023-04-29T00:12:44.175Z,26.80
2023-04-29T00:15:11.027Z,23.13
2023-04-29T00:17:37.844Z,25.98
2023-04-29T00:20:07.550Z,26.70
2023-04-29T00:22:34.505Z,24.33
2023-04-29T00:25:00.977Z,25.97
2023-04-29T00:27:27.433Z,24.75
2023-04-29T00:29:54.610Z,29.40
2023-04-29T00:32:21.942Z,24.88
2023-04-29T00:34:48.554Z,24.52
2023-04-29T00:37:15.241Z,22.77
2023-04-29T00:39:42.094Z,25.90
2023-04-29T00:42:12.819Z,22.90
2023-04-29T00:44:39.347Z,26.63
2023-04-29T00:47:06.038Z,25.48
2023-04-29T00:49:32.533Z,23.83
2023-04-29T00:51:59.509Z,25.48
2023-04-29T00:54:26.055Z,24.67
2023-04-29T00:56:53.639Z,25.40
2023-04-29T00:59:21.186Z,26.08
2023-04-29T01:01:47.747Z,28.00
2023-04-29T01:04:15.229Z,28.10
2023-04-29T01:06:54.240Z,25.92
2023-04-29T01:09:58.525Z,29.42
2023-04-29T01:12:48.188Z,29.27
2023-04-29T01:15:29.304Z,28.10
2023-04-29T01:18:00.376Z,27.83
2023-04-29T01:20:27.563Z,24.65
2023-04-29T01:22:54.054Z,26.60
2023-04-29T01:25:20.525Z,26.60
2023-04-29T01:27:51.153Z,24.20
2023-04-29T01:30:27.206Z,22.70
2023-04-29T01:33:17.364Z,23.75
2023-04-29T01:36:41.370Z,25.63
2023-04-29T01:39:58.891Z,23.70
2023-04-29T01:42:46.361Z,25.53
2023-04-29T01:45:18.720Z,25.05
2023-04-29T01:47:47.234Z,26.30
2023-04-29T01:50:13.754Z,28.17
2023-04-29T01:52:40.292Z,27.45
2023-04-29T01:55:07.586Z,26.53
2023-04-29T01:57:34.458Z,27.38
2023-04-29T02:00:02.165Z,24.67
2023-04-29T02:02:28.788Z,26.65
2023-04-29T02:04:55.916Z,32.00
2023-04-29T02:07:22.733Z,27.67
2023-04-29T02:09:49.249Z,28.08
2023-04-29T02:12:15.741Z,25.63
2023-04-29T02:14:42.697Z,24.25
2023-04-29T02:17:11.651Z,30.80
2023-04-29T02:19:38.212Z,22.40
2023-04-29T02:22:04.759Z,26.75
2023-04-29T02:24:33.691Z,22.83
2023-04-29T02:27:00.252Z,28.95
2023-04-29T02:29:27.712Z,25.50
2023-04-29T02:31:54.290Z,28.10
2023-04-29T02:34:20.772Z,26.55
2023-04-29T02:36:47.301Z,27.92
2023-04-29T02:39:13.839Z,23.27
2023-04-29T02:41:40.720Z,22.42
2023-04-29T02:44:07.242Z,25.83
2023-04-29T02:46:35.998Z,24.02
2023-04-29T02:49:03.707Z,25.77
2023-04-29T02:51:30.772Z,26.33
2023-04-29T02:53:57.508Z,24.23
2023-04-29T02:56:23.984Z,24.83
2023-04-29T02:58:50.457Z,22.35
2023-04-29T03:01:17.050Z,23.38
2023-04-29T03:03:43.710Z,26.92
2023-04-29T03:06:10.267Z,23.42
2023-04-29T03:08:36.725Z,23.27
2023-04-29T03:11:03.191Z,22.70
2023-04-29T03:13:29.738Z,27.08
2023-04-29T03:15:58.661Z,23.02
2023-04-29T03:18:25.158Z,23.70
2023-04-29T03:20:51.793Z,22.07
2023-04-29T03:23:18.276Z,24.05
2023-04-29T03:25:44.802Z,23.60
2023-04-29T03:28:11.275Z,25.13
2023-04-29T03:30:37.833Z,21.65
2023-04-29T03:33:04.441Z,21.40
2023-04-29T03:35:31.027Z,22.52
2023-04-29T03:37:57.546Z,20.25
2023-04-29T03:40:24.059Z,21.38
2023-04-29T03:42:50.739Z,25.23
2023-04-29T03:45:17.732Z,22.40
2023-04-29T03:47:44.442Z,21.92
2023-04-29T03:50:11.904Z,24.75
2023-04-29T03:52:38.792Z,23.92
2023-04-29T03:55:05.639Z,24.40
2023-04-29T03:57:32.137Z,21.67
2023-04-29T03:59:58.599Z,22.48
2023-04-29T04:02:25.288Z,28.10
2023-04-29T04:04:52.342Z,22.40
2023-04-29T04:07:18.890Z,19.02
2023-04-29T04:09:46.036Z,22.03
2023-04-29T04:12:12.530Z,20.45
2023-04-29T04:14:39.241Z,20.40
2023-04-29T04:17:05.788Z,24.15
2023-04-29T04:19:32.801Z,19.98
2023-04-29T04:21:59.497Z,25.07
2023-04-29T04:24:25.963Z,26.63
2023-04-29T04:26:52.398Z,22.70
2023-04-29T04:29:18.924Z,22.05
2023-04-29T04:31:47.018Z,22.60
2023-04-29T04:34:13.830Z,21.00
2023-04-29T04:36:40.344Z,20.00
2023-04-29T04:39:06.823Z,22.50
2023-04-29T04:41:33.485Z,22.08
2023-04-29T04:43:59.994Z,23.88
2023-04-29T04:46:26.462Z,19.70
2023-04-29T04:48:52.933Z,28.00
2023-04-29T04:51:19.472Z,21.85
2023-04-29T04:53:46.044Z,27.05
2023-04-29T04:56:12.783Z,27.25
2023-04-29T04:58:39.284Z,26.40
2023-04-29T05:01:05.911Z,25.02
2023-04-29T05:03:32.542Z,25.42
2023-04-29T05:06:00.492Z,22.73
2023-04-29T05:08:27.298Z,23.45
2023-04-29T05:10:54.433Z,23.30
2023-04-29T05:13:21.229Z,20.42
2023-04-29T05:15:47.994Z,26.23
2023-04-29T05:18:14.524Z,25.50
2023-04-29T05:20:41.004Z,25.95
2023-04-29T05:23:07.563Z,26.83
2023-04-29T05:25:34.056Z,27.85
2023-04-29T05:28:00.834Z,28.25
2023-04-29T05:30:27.310Z,26.45
2023-04-29T05:32:53.891Z,26.10
2023-04-29T05:35:20.431Z,27.83
2023-04-29T05:37:46.922Z,27.67
2023-04-29T05:40:13.456Z,32.83
2023-04-29T05:42:40.020Z,29.13
2023-04-29T05:45:07.197Z,27.92
2023-04-29T05:47:33.902Z,26.13
2023-04-29T05:50:00.797Z,24.55
2023-04-29T05:52:27.283Z,26.80
2023-04-29T05:54:53.758Z,28.42
2023-04-29T05:57:20.294Z,28.20
2023-04-29T05:59:46.851Z,30.13
2023-04-29T06:02:14.589Z,30.67
2023-04-29T06:04:42.031Z,30.92
2023-04-29T06:07:09.336Z,32.17
2023-04-29T06:09:37.178Z,30.25
2023-04-29T06:12:03.863Z,34.80
2023-04-29T06:14:32.714Z,36.75
2023-04-29T06:16:59.175Z,36.30
2023-04-29T06:19:25.813Z,36.70
2023-04-29T06:21:52.328Z,36.63
2023-04-29T06:24:18.849Z,36.43
2023-04-29T06:26:45.654Z,33.38
2023-04-29T06:29:12.381Z,32.00
2023-04-29T06:31:41.148Z,33.75
2023-04-29T06:34:07.892Z,31.63
2023-04-29T06:36:34.368Z,31.33
2023-04-29T06:39:00.938Z,28.83
2023-04-29T06:41:27.890Z,28.90
2023-04-29T06:43:54.368Z,31.35
2023-04-29T06:46:20.881Z,31.70
2023-04-29T06:48:47.577Z,29.43
2023-04-29T06:51:14.091Z,24.58
2023-04-29T06:53:40.655Z,28.52
2023-04-29T06:56:09.586Z,25.58
2023-04-29T06:58:38.362Z,24.38
2023-04-29T07:01:07.177Z,25.20
2023-04-29T07:03:33.962Z,24.77
2023-04-29T07:06:00.884Z,21.88
2023-04-29T07:08:28.686Z,23.55
2023-04-29T07:11:00.351Z,24.67
2023-04-29T07:13:29.853Z,22.37
2023-04-29T07:15:56.520Z,26.90
2023-04-29T07:18:23.289Z,23.00
2023-04-29T07:20:51.568Z,25.27
2023-04-29T07:23:18.042Z,24.55
2023-04-29T07:25:44.574Z,23.33
2023-04-29T07:28:11.194Z,19.65
2023-04-29T07:30:37.760Z,18.92
2023-04-29T07:33:04.607Z,18.65
2023-04-29T07:35:31.548Z,19.27
2023-04-29T07:37:58.153Z,20.57
2023-04-29T07:40:24.696Z,17.88
2023-04-29T07:42:51.530Z,18.02
2023-04-29T07:45:18.033Z,19.35
2023-04-29T07:47:45.497Z,20.73
2023-04-29T07:50:14.098Z,18.53
2023-04-29T07:52:40.691Z,20.17
2023-04-29T07:55:10.474Z,19.02
2023-04-29T07:57:37.091Z,16.92
2023-04-29T08:00:03.982Z,16.80
2023-04-29T08:02:30.736Z,17.57
2023-04-29T08:04:57.598Z,16.83
2023-04-29T08:07:24.860Z,16.13
2023-04-29T08:09:51.534Z,15.35
2023-04-29T08:12:18.123Z,16.13
2023-04-29T08:14:44.586Z,14.47
2023-04-29T08:17:11.348Z,15.90
2023-04-29T08:19:37.915Z,15.20
2023-04-29T08:22:04.511Z,18.80
2023-04-29T08:24:31.197Z,15.77
2023-04-29T08:26:59.203Z,15.57
2023-04-29T08:29:25.803Z,12.13
2023-04-29T08:31:52.473Z,13.25
2023-04-29T08:34:21.782Z,17.75
2023-04-29T08:36:48.256Z,15.80
2023-04-29T08:39:14.980Z,15.70
2023-04-29T08:41:44.071Z,16.15
2023-04-29T08:44:10.541Z,13.32
2023-04-29T08:46:38.338Z,12.65
2023-04-29T08:49:07.131Z,13.63
2023-04-29T08:51:34.703Z,14.57
2023-04-29T08:54:01.265Z,14.45
2023-04-29T08:56:30.997Z,14.48
2023-04-29T08:59:00.914Z,13.85
2023-04-29T09:01:29.141Z,13.88
2023-04-29T09:04:12.599Z,14.47
2023-04-29T09:06:39.403Z,13.23
2023-04-29T09:09:06.861Z,13.18
2023-04-29T09:11:34.326Z,13.65
2023-04-29T09:14:01.601Z,12.93
2023-04-29T09:16:29.465Z,14.07
2023-04-29T09:18:56.789Z,14.05
2023-04-29T09:21:25.627Z,11.70
2023-04-29T09:23:57.094Z,13.93
2023-04-29T09:26:24.250Z,11.45
2023-04-29T09:29:11.835Z,12.57
2023-04-29T09:31:39.521Z,11.90
2023-04-29T09:34:06.502Z,12.70
2023-04-29T09:36:37.734Z,12.07
2023-04-29T09:39:22.133Z,12.10
2023-04-29T09:41:54.776Z,14.20
2023-04-29T09:44:32.068Z,13.52
2023-04-29T09:47:04.606Z,15.23
2023-04-29T09:49:35.809Z,12.68
2023-04-29T09:52:04.577Z,13.98
2023-04-29T09:54:32.963Z,12.20
2023-04-29T09:57:03.232Z,12.13
2023-04-29T09:59:29.854Z,11.52
2023-04-29T10:01:57.711Z,11.02
2023-04-29T10:04:26.932Z,11.38
2023-04-29T10:06:55.397Z,11.67
2023-04-29T10:09:23.572Z,11.75
2023-04-29T10:11:52.355Z,14.48
2023-04-29T10:14:23.547Z,11.40
2023-04-29T10:16:59.589Z,10.52
2023-04-29T10:19:35.636Z,21.33
2023-04-29T10:22:08.836Z,13.07
2023-04-29T10:24:37.855Z,11.50
2023-04-29T10:27:07.943Z,9.32
2023-04-29T10:29:37.007Z,10.75
2023-04-29T10:32:04.699Z,10.43
2023-04-29T10:34:33.634Z,11.20
2023-04-29T10:37:00.531Z,10.98
2023-04-29T10:39:36.143Z,13.15
2023-04-29T10:42:05.812Z,10.93
2023-04-29T10:44:32.293Z,10.27
2023-04-29T10:47:21.271Z,10.00
2023-04-29T10:50:04.557Z,11.85
2023-04-29T10:52:31.324Z,10.00
2023-04-29T10:55:04.190Z,9.27
2023-04-29T10:57:30.884Z,12.97
2023-04-29T10:59:57.347Z,8.63
2023-04-29T11:02:23.913Z,10.77
2023-04-29T11:05:10.201Z,9.73
2023-04-29T11:07:37.045Z,9.00
2023-04-29T11:10:04.080Z,8.83
2023-04-29T11:12:30.618Z,10.52
2023-04-29T11:15:04.715Z,11.18
2023-04-29T11:17:38.461Z,8.25
2023-04-29T11:20:13.374Z,9.40
2023-04-29T11:22:50.753Z,8.50
2023-04-29T11:25:17.757Z,10.48
2023-04-29T11:27:47.675Z,12.63
2023-04-29T11:30:15.148Z,8.23
2023-04-29T11:32:42.913Z,9.75
2023-04-29T11:35:20.229Z,10.50
2023-04-29T11:37:47.128Z,9.27
2023-04-29T11:40:14.516Z,8.15
2023-04-29T11:42:43.610Z,8.85
2023-04-29T11:45:12.920Z,7.35
2023-04-29T11:47:43.672Z,8.43
2023-04-29T11:50:10.675Z,7.45
2023-04-29T11:52:39.177Z,8.85
2023-04-29T11:55:08.602Z,9.13
2023-04-29T11:57:36.320Z,10.00
2023-04-29T12:00:06.104Z,8.13
2023-04-29T12:02:34.942Z,9.98
2023-04-29T12:07:34.256Z,9.73
2023-04-29T12:10:00.947Z,9.93
2023-04-29T12:12:28.360Z,7.87
2023-04-29T12:14:55.545Z,8.68
2023-04-29T12:17:24.935Z,7.90
2023-04-29T12:19:51.692Z,9.18
2023-04-29T12:22:19.871Z,10.90
2023-04-29T12:24:47.086Z,9.57
2023-04-29T12:27:13.668Z,9.48
2023-04-29T12:29:42.988Z,9.93
2023-04-29T12:32:16.655Z,8.20
2023-04-29T12:34:46.257Z,8.48
2023-04-29T12:37:13.410Z,9.73
2023-04-29T12:39:39.874Z,8.68
2023-04-29T12:42:06.566Z,8.07
2023-04-29T12:44:40.772Z,10.63
2023-04-29T12:47:11.433Z,9.63
2023-04-29T12:49:38.760Z,9.20
2023-04-29T12:52:06.241Z,8.00
2023-04-29T12:54:32.744Z,7.93
2023-04-29T12:57:02.010Z,8.20
2023-04-29T12:59:28.551Z,8.07
2023-04-29T13:01:55.094Z,7.50
2023-04-29T13:04:21.879Z,7.88
2023-04-29T13:06:49.644Z,7.40
2023-04-29T13:09:18.809Z,10.48
2023-04-29T13:11:46.433Z,7.57
2023-04-29T13:14:14.348Z,10.27
2023-04-29T13:16:41.105Z,8.68
2023-04-29T13:19:26.647Z,8.43
2023-04-29T13:21:54.348Z,7.20
2023-04-29T13:24:24.044Z,7.15
2023-04-29T13:26:52.629Z,6.30
2023-04-29T13:29:19.464Z,7.15
2023-04-29T13:31:46.062Z,7.18
2023-04-29T13:34:12.640Z,7.53
2023-04-29T13:36:39.615Z,7.40
2023-04-29T13:39:06.270Z,7.40
2023-04-29T13:41:35.475Z,7.63
2023-04-29T13:44:02.706Z,6.28
2023-04-29T13:46:31.478Z,6.03
2023-04-29T13:49:17.113Z,7.22
2023-04-29T13:52:30.603Z,7.60
2023-04-29T13:57:55.121Z,11.82
2023-04-29T13:59:53.200Z,11.05
2023-04-29T14:04:49.747Z,7.40
2023-04-29T14:07:16.765Z,7.10
2023-04-29T14:09:43.394Z,6.20
2023-04-29T14:12:10.400Z,6.90
2023-04-29T14:14:36.952Z,6.88
2023-04-29T14:17:03.771Z,6.70
2023-04-29T14:19:30.383Z,7.10
2023-04-29T14:21:57.008Z,7.07
2023-04-29T14:24:23.486Z,8.23
2023-04-29T14:26:49.966Z,7.20
2023-04-29T14:29:16.444Z,7.10
2023-04-29T14:31:43.041Z,6.10
2023-04-29T14:34:09.585Z,6.05
2023-04-29T14:36:36.178Z,7.53
2023-04-29T14:39:04.267Z,6.75
2023-04-29T14:41:30.871Z,7.97
2023-04-29T14:43:57.360Z,6.38
2023-04-29T14:46:25.221Z,6.15
2023-04-29T14:48:52.181Z,6.18
2023-04-29T14:51:18.651Z,6.65
2023-04-29T14:53:45.172Z,5.57
2023-04-29T14:56:11.804Z,8.20
2023-04-29T14:58:40.844Z,5.95
2023-04-29T15:01:07.479Z,6.35
2023-04-29T15:03:34.100Z,6.47
2023-04-29T15:06:04.400Z,6.60
2023-04-29T15:08:31.549Z,6.80
2023-04-29T15:10:58.350Z,5.55
2023-04-29T15:13:24.905Z,5.05
2023-04-29T15:15:52.377Z,5.97
2023-04-29T15:18:18.972Z,4.77
2023-04-29T15:20:46.194Z,5.22
2023-04-29T15:23:12.781Z,5.15
2023-04-29T15:25:41.974Z,5.57
2023-04-29T15:28:11.037Z,5.70
2023-04-29T15:30:38.096Z,4.63
2023-04-29T15:33:04.723Z,5.50
2023-04-29T15:35:31.808Z,5.05
2023-04-29T15:37:59.274Z,6.85
2023-04-29T15:40:26.209Z,6.10
2023-04-29T15:42:53.100Z,5.93
2023-04-29T15:45:19.949Z,6.97
2023-04-29T15:47:47.316Z,5.22
2023-04-29T15:50:13.940Z,5.07
2023-04-29T15:52:40.561Z,5.57
2023-04-29T15:55:07.430Z,5.27
2023-04-29T15:57:34.882Z,5.15
2023-04-29T16:00:01.576Z,6.00
2023-04-29T16:02:28.388Z,6.10
2023-04-29T16:04:55.017Z,7.75
2023-04-29T16:07:21.702Z,5.43
2023-04-29T16:09:49.027Z,6.47
2023-04-29T16:12:18.000Z,5.82
2023-04-29T16:14:44.951Z,6.18
2023-04-29T16:17:13.495Z,6.20
2023-04-29T16:19:41.475Z,5.80
2023-04-29T16:22:08.028Z,5.20
2023-04-29T16:24:34.572Z,6.22
2023-04-29T16:27:01.500Z,7.15
2023-04-29T16:29:28.136Z,7.25
2023-04-29T16:31:55.173Z,6.77
2023-04-29T16:34:21.634Z,6.60
2023-04-29T16:36:48.244Z,6.80
2023-04-29T16:39:16.303Z,6.35
2023-04-29T16:41:42.793Z,6.85
2023-04-29T16:44:09.348Z,5.77
2023-04-29T16:46:36.207Z,6.07
2023-04-29T16:49:03.292Z,7.32
2023-04-29T16:51:30.113Z,6.20
2023-04-29T16:53:56.688Z,4.93
2023-04-29T16:56:23.188Z,7.00
2023-04-29T16:58:49.688Z,6.57
2023-04-29T17:01:19.145Z,6.32
2023-04-29T17:03:47.606Z,5.63
2023-04-29T17:06:15.239Z,7.47
2023-04-29T17:08:41.785Z,6.17
2023-04-29T17:11:08.276Z,5.55
2023-04-29T17:13:34.755Z,6.75
2023-04-29T17:16:01.512Z,6.72
2023-04-29T17:18:28.167Z,6.13
2023-04-29T17:20:58.137Z,6.93
2023-04-29T17:23:24.891Z,6.10
2023-04-29T17:25:51.469Z,5.60
2023-04-29T17:28:20.208Z,6.25
2023-04-29T17:30:46.688Z,6.32
2023-04-29T17:33:14.124Z,6.10
2023-04-29T17:35:45.710Z,6.05
2023-04-29T17:38:13.981Z,5.38
2023-04-29T17:40:40.506Z,6.07
2023-04-29T17:43:07.035Z,7.18
2023-04-29T17:45:33.631Z,7.53
2023-04-29T17:48:00.944Z,6.75
2023-04-29T17:50:27.880Z,5.47
2023-04-29T17:52:54.510Z,6.10
2023-04-29T17:55:21.140Z,5.40
2023-04-29T17:57:47.703Z,6.53
2023-04-29T18:00:14.472Z,4.70
2023-04-29T18:02:41.331Z,5.78
2023-04-29T18:05:08.489Z,5.75
2023-04-29T18:07:35.206Z,5.72
2023-04-29T18:10:01.969Z,4.90
2023-04-29T18:12:28.664Z,4.82
2023-04-29T18:14:55.262Z,5.78
2023-04-29T18:17:22.139Z,4.78
2023-04-29T18:19:51.577Z,4.72
2023-04-29T18:22:20.303Z,5.50
2023-04-29T18:24:48.513Z,6.85
2023-04-29T18:27:15.275Z,10.13
2023-04-29T18:29:42.070Z,12.00
2023-04-29T18:32:08.880Z,9.02
2023-04-29T18:34:35.765Z,11.10
2023-04-29T18:37:02.292Z,8.93
2023-04-29T18:39:28.908Z,9.75
2023-04-29T18:41:56.115Z,7.20
2023-04-29T18:44:22.772Z,6.55
2023-04-29T18:46:49.626Z,6.60
2023-04-29T18:49:17.950Z,7.55
2023-04-29T18:51:48.170Z,6.90
2023-04-29T18:54:16.625Z,6.32
2023-04-29T18:56:46.731Z,6.72
2023-04-29T18:59:19.479Z,6.57
2023-04-29T19:01:47.575Z,7.25
2023-04-29T19:04:14.708Z,12.82
2023-04-29T19:06:42.256Z,21.15
2023-04-29T19:09:09.159Z,11.30
2023-04-29T19:11:36.343Z,8.63
2023-04-29T19:14:06.010Z,9.27
2023-04-29T19:16:35.530Z,10.10
2023-04-29T19:19:04.239Z,10.32
2023-04-29T19:21:33.213Z,11.35
2023-04-29T19:24:00.084Z,11.90
2023-04-29T19:26:26.735Z,12.50
2023-04-29T19:28:53.410Z,10.32
2023-04-29T19:31:20.096Z,10.75
2023-04-29T19:33:46.869Z,11.38
2023-04-29T19:36:14.370Z,10.57
2023-04-29T19:38:41.052Z,11.40
2023-04-29T19:41:09.782Z,11.32
2023-04-29T19:43:36.590Z,13.40
2023-04-29T19:46:03.435Z,14.40
2023-04-29T19:48:30.219Z,14.67
2023-04-29T19:50:59.498Z,17.10
2023-04-29T19:53:27.042Z,10.98
2023-04-29T19:55:54.186Z,10.73
2023-04-29T19:58:23.393Z,10.48
2023-04-29T20:00:53.146Z,14.73
2023-04-29T20:03:20.107Z,16.90
2023-04-29T20:05:47.425Z,15.07
2023-04-29T20:08:13.937Z,15.60
2023-04-29T20:10:41.667Z,15.57
2023-04-29T20:13:08.278Z,14.17
2023-04-29T20:15:35.398Z,15.48
2023-04-29T20:18:02.243Z,15.13
2023-04-29T20:20:28.865Z,13.13
2023-04-29T20:22:58.185Z,13.82
2023-04-29T20:25:25.804Z,18.57
2023-04-29T20:27:53.751Z,17.65
2023-04-29T20:30:20.757Z,16.65
2023-04-29T20:32:47.397Z,12.77
2023-04-29T20:35:15.071Z,14.73
2023-04-29T20:37:41.728Z,16.00
2023-04-29T20:40:09.852Z,15.75
2023-04-29T20:42:36.551Z,16.27
2023-04-29T20:45:03.917Z,15.43
2023-04-29T20:47:30.685Z,14.32
2023-04-29T20:49:57.242Z,17.57
2023-04-29T20:52:26.284Z,21.10
2023-04-29T20:54:53.060Z,18.15
2023-04-29T20:57:21.216Z,14.10
2023-04-29T20:59:47.884Z,18.45
2023-04-29T21:02:14.684Z,18.67
2023-04-29T21:04:41.337Z,15.90
2023-04-29T21:07:08.418Z,15.13
2023-04-29T21:09:35.995Z,17.25
2023-04-29T21:12:05.421Z,17.45
2023-04-29T21:14:32.953Z,18.83
2023-04-29T21:16:59.786Z,22.10
2023-04-29T21:19:26.428Z,18.35
2023-04-29T21:21:53.003Z,14.25
2023-04-29T21:24:22.246Z,15.18
2023-04-29T21:26:51.806Z,15.13
2023-04-29T21:29:19.921Z,14.32
2023-04-29T21:31:46.536Z,20.95
2023-04-29T21:34:13.309Z,14.73
2023-04-29T21:36:39.937Z,16.45
2023-04-29T21:39:06.662Z,17.00
2023-04-29T21:41:39.723Z,15.98
2023-04-29T21:44:07.468Z,20.17
2023-04-29T21:46:34.916Z,19.35
2023-04-29T21:49:02.829Z,19.92
2023-04-29T21:51:30.048Z,17.13
2023-04-29T21:53:57.590Z,16.95
2023-04-29T21:56:24.443Z,16.02
2023-04-29T21:58:51.430Z,16.67
2023-04-29T22:01:29.594Z,15.75
2023-04-29T22:03:57.414Z,18.40
2023-04-29T22:06:24.819Z,18.95
2023-04-29T22:08:53.877Z,17.85
2023-04-29T22:11:21.995Z,20.40
2023-04-29T22:13:49.223Z,16.75
2023-04-29T22:16:18.550Z,17.03
2023-04-29T22:18:45.491Z,16.67
2023-04-29T22:21:12.012Z,19.25
2023-04-29T22:23:38.586Z,17.38
2023-04-29T22:26:05.254Z,18.27
2023-04-29T22:28:32.051Z,19.20
2023-04-29T22:30:58.545Z,20.20
2023-04-29T22:33:25.281Z,21.85
2023-04-29T22:35:51.788Z,17.38
2023-04-29T22:38:18.385Z,18.17
2023-04-29T22:40:52.388Z,17.73
2023-04-29T22:43:18.918Z,21.17
2023-04-29T22:45:52.780Z,21.65
2023-04-29T22:48:19.704Z,16.27
2023-04-29T22:50:53.841Z,16.45
2023-04-29T22:53:20.725Z,20.13
2023-04-29T22:55:54.398Z,21.35
2023-04-29T22:58:21.179Z,19.05
2023-04-29T23:01:00.709Z,20.85
2023-04-29T23:03:27.719Z,19.92
2023-04-29T23:05:59.236Z,22.43
2023-04-29T23:08:27.244Z,19.73
2023-04-29T23:10:53.891Z,20.45
2023-04-29T23:13:20.544Z,19.27
2023-04-29T23:15:47.067Z,19.67
2023-04-29T23:18:14.307Z,19.00
2023-04-29T23:20:40.938Z,24.80
2023-04-29T23:23:07.550Z,17.55
2023-04-29T23:25:34.756Z,17.92
2023-04-29T23:28:01.343Z,20.02
2023-04-29T23:30:27.944Z,21.53
2023-04-29T23:32:54.549Z,21.17
2023-04-29T23:35:21.652Z,19.40
2023-04-29T23:37:49.305Z,22.95
2023-04-29T23:40:18.533Z,21.80
2023-04-29T23:42:48.124Z,17.50
2023-04-29T23:45:14.874Z,19.35
2023-04-29T23:47:41.683Z,20.15
2023-04-29T23:50:08.869Z,20.73
2023-04-29T23:52:35.359Z,21.90
2023-04-29T23:55:02.233Z,21.47
2023-04-29T23:57:28.789Z,19.98
2023-04-29T23:59:55.706Z,20.58
